< < Back
Terminal Aerodrome Forecast


Current Version              Previous Versions:   1  2  3  4  5  6  7  8  9  

Terminal Aerodrome Forecast

130
FTUS44 KHUN 201721
TAFHSV
TAF
KHSV 201721Z 2018/2118 29006KT P6SM SKC
     FM210000 VRB03KT P6SM BKN250
     FM211500 10006KT P6SM SCT120 BKN250=



Latest METAR

784
SAUS80 KWBC 211200 RRB
MTRHSV
METAR KHSV 211153Z 05007KT 10SM FEW035 SCT080 06/M04 A3035 RMK AO2
SLP277 FIRST T00561039 10061 20028 51014


USA.gov is the U.S. government's official web portal to all federal, state and local government web resources and services.